Time;durP1;ratioP1;P1;durP2;ratioP2;P2;SDS_P1;SDS_P2;PMS_P1;PMS_P2;Temp;Humidity;BMP_temperature;BMP_pressure;BME280_temperature;BME280_humidity;BME280_pressure;Samples;Min_cycle;Max_cycle;Signal;HPM_P1;HPM_P2
2021/09/18 00:01:25;;;;;;;5.53;4.73;;;13.60;99.90;;;;;;6208315;23;20174;-86
2021/09/18 00:03:52;;;;;;;5.87;4.67;;;13.50;99.90;;;;;;6207058;23;20178;-86
2021/09/18 00:06:19;;;;;;;5.33;4.83;;;13.50;99.90;;;;;;6208660;23;20588;-86
2021/09/18 00:08:46;;;;;;;5.60;5.10;;;13.50;99.90;;;;;;6208109;23;20170;-82
2021/09/18 00:11:12;;;;;;;5.30;4.80;;;13.50;99.90;;;;;;6206836;23;20626;-80
2021/09/18 00:13:39;;;;;;;6.67;5.40;;;13.40;99.90;;;;;;6208232;23;20174;-81
2021/09/18 00:16:07;;;;;;;5.87;5.30;;;13.40;99.90;;;;;;6208916;23;20181;-85
2021/09/18 00:18:34;;;;;;;5.70;5.10;;;13.50;99.90;;;;;;6207227;23;20186;-82
2021/09/18 00:21:02;;;;;;;4.80;4.40;;;13.40;99.90;;;;;;6207777;23;20181;-86
2021/09/18 00:23:29;;;;;;;5.57;4.97;;;13.40;99.90;;;;;;6206313;23;20625;-86
2021/09/18 00:25:56;;;;;;;6.07;5.27;;;13.40;99.90;;;;;;6206833;23;20181;-82
2021/09/18 00:28:23;;;;;;;5.70;5.20;;;13.40;99.90;;;;;;6206687;23;20170;-87
2021/09/18 00:30:49;;;;;;;5.90;5.30;;;13.50;99.90;;;;;;6207445;23;20544;-86
2021/09/18 00:33:18;;;;;;;6.03;5.40;;;13.40;99.90;;;;;;6206511;23;20174;-80
2021/09/18 00:35:44;;;;;;;6.00;5.30;;;13.40;99.90;;;;;;6206841;23;20854;-83
2021/09/18 00:38:12;;;;;;;5.70;5.00;;;13.40;99.90;;;;;;6206494;23;20220;-82
2021/09/18 00:40:39;;;;;;;5.63;5.07;;;13.40;99.90;;;;;;6204527;23;20185;-82
2021/09/18 00:43:06;;;;;;;5.90;5.20;;;13.40;99.90;;;;;;6206522;23;20189;-80
2021/09/18 00:45:33;;;;;;;5.47;4.87;;;13.30;99.90;;;;;;6206156;23;20181;-84
2021/09/18 00:48:00;;;;;;;5.73;5.03;;;13.30;99.90;;;;;;6209561;23;20594;-86
2021/09/18 00:50:28;;;;;;;5.83;5.23;;;13.30;99.90;;;;;;6210242;23;20185;-87
2021/09/18 00:52:55;;;;;;;6.20;5.70;;;13.30;99.90;;;;;;6209420;23;20174;-85
2021/09/18 00:55:22;;;;;;;5.47;4.97;;;13.20;99.90;;;;;;6208490;23;20166;-86
2021/09/18 00:57:49;;;;;;;5.47;4.97;;;13.20;99.90;;;;;;6210630;23;20194;-85
2021/09/18 01:00:16;;;;;;;6.27;5.20;;;13.20;99.90;;;;;;6207926;23;20181;-86
2021/09/18 01:02:43;;;;;;;7.00;6.30;;;13.20;99.90;;;;;;6209684;23;20181;-83
2021/09/18 01:05:11;;;;;;;6.20;5.60;;;13.20;99.90;;;;;;6208945;23;20172;-81
2021/09/18 01:07:40;;;;;;;6.80;5.83;;;13.20;99.90;;;;;;6209639;23;20177;-85
2021/09/18 01:10:09;;;;;;;6.03;5.43;;;13.20;99.90;;;;;;6209210;23;20181;-82
2021/09/18 01:12:58;;;;;;;6.70;5.43;;;13.20;99.90;;;;;;6209818;23;20250;-86
2021/09/18 01:15:27;;;;;;;6.07;5.10;;;13.20;99.90;;;;;;6208271;23;20213;-87
2021/09/18 01:17:55;;;;;;;7.20;6.50;;;13.20;99.90;;;;;;6208066;23;20182;-82
2021/09/18 01:20:24;;;;;;;8.93;6.50;;;13.20;99.90;;;;;;6205867;23;20663;-82
2021/09/18 01:22:53;;;;;;;9.17;7.70;;;13.20;99.90;;;;;;6206307;23;20178;-86
2021/09/18 01:25:21;;;;;;;9.77;7.93;;;13.20;99.90;;;;;;6206982;23;20174;-84
2021/09/18 01:27:48;;;;;;;7.43;6.50;;;13.10;99.90;;;;;;6207494;23;20170;-86
2021/09/18 01:30:19;;;;;;;6.70;6.00;;;13.10;99.90;;;;;;6206034;23;20170;-86
2021/09/18 01:32:46;;;;;;;7.30;6.60;;;13.00;99.90;;;;;;6206771;23;20438;-86
2021/09/18 01:35:14;;;;;;;7.47;6.67;;;13.00;99.90;;;;;;6207055;23;20184;-84
2021/09/18 01:37:41;;;;;;;8.20;7.40;;;13.10;99.90;;;;;;6207456;23;20201;-79
2021/09/18 01:40:09;;;;;;;8.80;7.87;;;13.10;99.90;;;;;;6207668;23;20178;-83
2021/09/18 01:42:43;;;;;;;8.97;7.57;;;13.10;99.90;;;;;;6206962;23;20171;-83
2021/09/18 01:45:12;;;;;;;11.77;9.37;;;13.10;99.90;;;;;;6207345;23;20201;-83
2021/09/18 01:47:43;;;;;;;11.93;9.83;;;13.10;99.90;;;;;;6205998;23;20212;-79
2021/09/18 01:50:21;;;;;;;14.17;11.67;;;13.10;99.90;;;;;;6205503;23;20277;-78
2021/09/18 01:52:49;;;;;;;13.57;11.53;;;13.10;99.90;;;;;;6206799;23;20285;-79
2021/09/18 01:55:17;;;;;;;12.87;11.50;;;13.10;99.90;;;;;;6206317;23;20198;-85
2021/09/18 01:57:47;;;;;;;13.63;11.77;;;13.10;99.90;;;;;;6205255;23;20478;-82
2021/09/18 02:00:15;;;;;;;13.40;12.00;;;13.10;99.90;;;;;;6205529;23;20166;-86
2021/09/18 02:02:42;;;;;;;17.17;14.30;;;13.10;99.90;;;;;;6205329;23;20167;-81
2021/09/18 02:05:10;;;;;;;16.60;13.87;;;13.10;99.90;;;;;;6205055;23;20170;-87
2021/09/18 02:07:36;;;;;;;16.17;12.93;;;13.20;99.90;;;;;;6206213;23;20182;-86
2021/09/18 02:10:05;;;;;;;17.00;13.43;;;13.20;99.90;;;;;;6206919;23;20357;-86
2021/09/18 02:12:32;;;;;;;13.97;12.43;;;13.20;99.90;;;;;;6180375;23;20194;-80
2021/09/18 02:15:00;;;;;;;16.47;13.03;;;13.30;99.90;;;;;;6207004;23;20202;-79
2021/09/18 02:17:28;;;;;;;15.13;13.47;;;13.30;99.90;;;;;;6205241;23;20174;-81
2021/09/18 02:19:55;;;;;;;15.30;13.57;;;13.30;99.90;;;;;;6207470;23;20174;-79
2021/09/18 02:22:22;;;;;;;14.83;12.50;;;13.30;99.90;;;;;;6207023;23;20170;-78
2021/09/18 02:24:48;;;;;;;13.73;11.43;;;13.30;99.90;;;;;;6205691;23;20193;-79
2021/09/18 02:27:15;;;;;;;12.37;11.07;;;13.30;99.90;;;;;;6206068;23;20170;-82
2021/09/18 02:29:43;;;;;;;12.60;11.03;;;13.30;99.90;;;;;;6207035;23;20667;-82
2021/09/18 02:32:11;;;;;;;13.50;11.83;;;13.30;99.90;;;;;;6206395;23;20267;-82
2021/09/18 02:34:38;;;;;;;15.47;13.40;;;13.30;99.90;;;;;;6206279;23;20174;-84
2021/09/18 02:37:07;;;;;;;12.73;10.67;;;13.30;99.90;;;;;;6206522;23;20177;-82
2021/09/18 02:39:35;;;;;;;16.33;13.47;;;13.30;99.90;;;;;;6205970;23;20201;-79
2021/09/18 02:42:02;;;;;;;14.83;12.30;;;13.30;99.90;;;;;;6206362;23;20174;-77
2021/09/18 02:44:29;;;;;;;14.77;12.07;;;13.30;99.90;;;;;;6206014;23;20571;-79
2021/09/18 02:46:56;;;;;;;14.10;12.63;;;13.30;99.90;;;;;;6204940;23;20555;-83
2021/09/18 02:49:24;;;;;;;17.07;13.93;;;13.30;99.90;;;;;;6205913;23;20174;-78
2021/09/18 02:51:51;;;;;;;14.27;12.67;;;13.30;99.90;;;;;;6207052;23;20166;-81
2021/09/18 02:54:17;;;;;;;14.93;11.83;;;13.30;99.90;;;;;;6206197;23;20185;-82
2021/09/18 02:56:44;;;;;;;12.73;11.40;;;13.30;99.90;;;;;;6206135;23;20170;-81
2021/09/18 02:59:11;;;;;;;13.43;10.87;;;13.30;99.90;;;;;;6204452;23;20205;-83
2021/09/18 03:01:38;;;;;;;14.30;11.67;;;13.30;99.90;;;;;;6202587;23;20170;-84
2021/09/18 03:04:05;;;;;;;11.67;10.47;;;13.30;99.90;;;;;;6205845;23;20185;-86
2021/09/18 03:06:33;;;;;;;11.87;10.60;;;13.30;99.90;;;;;;6208349;23;20173;-82
2021/09/18 03:09:00;;;;;;;11.33;10.10;;;13.30;99.90;;;;;;6209564;23;20437;-83
2021/09/18 03:11:27;;;;;;;12.20;10.90;;;13.30;99.90;;;;;;6207874;23;20166;-81
2021/09/18 03:13:54;;;;;;;12.90;11.27;;;13.30;99.90;;;;;;6207012;23;20202;-80
2021/09/18 03:16:21;;;;;;;12.63;11.23;;;13.20;99.90;;;;;;6207020;23;20166;-82
2021/09/18 03:18:48;;;;;;;12.77;10.73;;;13.20;99.90;;;;;;6205808;23;20197;-84
2021/09/18 03:21:15;;;;;;;12.27;10.73;;;13.20;99.90;;;;;;6207639;23;20245;-82
2021/09/18 03:23:43;;;;;;;12.50;10.47;;;13.20;99.90;;;;;;6208452;23;20622;-82
2021/09/18 03:26:10;;;;;;;12.73;11.37;;;13.20;99.90;;;;;;6208627;23;20174;-85
2021/09/18 03:28:37;;;;;;;13.57;11.83;;;13.10;99.90;;;;;;6207337;23;20445;-85
2021/09/18 03:31:03;;;;;;;11.93;10.50;;;13.10;99.90;;;;;;6206508;23;20185;-85
2021/09/18 03:33:31;;;;;;;14.57;12.33;;;13.10;99.90;;;;;;6209769;23;20176;-84
2021/09/18 03:35:57;;;;;;;14.30;11.37;;;13.10;99.90;;;;;;6210632;23;20177;-84
2021/09/18 03:38:24;;;;;;;17.30;14.07;;;13.10;99.90;;;;;;6209377;23;20205;-82
2021/09/18 03:40:52;;;;;;;15.17;13.60;;;13.10;99.90;;;;;;6209372;23;20174;-80
2021/09/18 03:43:19;;;;;;;16.87;14.77;;;13.00;99.90;;;;;;6207697;23;20447;-81
2021/09/18 03:45:46;;;;;;;15.33;12.70;;;13.00;99.90;;;;;;6208547;23;20178;-87
2021/09/18 03:48:13;;;;;;;16.47;13.33;;;13.00;99.90;;;;;;6209612;23;20170;-83
2021/09/18 03:50:40;;;;;;;14.50;12.57;;;13.00;99.90;;;;;;6209218;23;20167;-79
2021/09/18 03:53:07;;;;;;;12.90;11.50;;;13.00;99.90;;;;;;6207286;23;20178;-80
2021/09/18 03:55:33;;;;;;;14.40;12.23;;;13.00;99.90;;;;;;6206862;23;20477;-83
2021/09/18 03:58:02;;;;;;;11.77;10.57;;;12.90;99.90;;;;;;6206426;23;20174;-86
2021/09/18 04:00:29;;;;;;;11.23;9.90;;;12.90;99.90;;;;;;6206978;23;20178;-78
2021/09/18 04:02:55;;;;;;;12.20;9.97;;;12.90;99.90;;;;;;6206320;23;20166;-79
2021/09/18 04:05:22;;;;;;;11.30;9.53;;;12.90;99.90;;;;;;6206426;23;20178;-81
2021/09/18 04:07:49;;;;;;;10.43;9.33;;;12.90;99.90;;;;;;6207414;23;20184;-83
2021/09/18 04:10:16;;;;;;;10.17;9.17;;;12.90;99.90;;;;;;6205801;23;20166;-81
2021/09/18 04:12:43;;;;;;;8.50;7.60;;;12.90;99.90;;;;;;6207066;23;20505;-79
2021/09/18 04:15:11;;;;;;;10.47;9.37;;;12.90;99.90;;;;;;6205827;23;20621;-79
2021/09/18 04:17:38;;;;;;;10.50;9.40;;;12.90;99.90;;;;;;6206594;23;20181;-79
2021/09/18 04:20:07;;;;;;;9.80;8.60;;;12.90;99.90;;;;;;6206566;23;20186;-81
2021/09/18 04:22:33;;;;;;;9.87;8.30;;;12.90;99.90;;;;;;6205389;23;20178;-81
2021/09/18 04:25:00;;;;;;;10.33;8.97;;;12.90;99.90;;;;;;6206017;23;20181;-86
2021/09/18 04:27:27;;;;;;;10.83;9.67;;;12.90;99.90;;;;;;6205587;23;20170;-78
2021/09/18 04:29:54;;;;;;;11.30;9.43;;;12.90;99.90;;;;;;6206302;23;20641;-80
2021/09/18 04:32:23;;;;;;;10.60;9.50;;;12.90;99.90;;;;;;6205752;23;20185;-80
2021/09/18 04:34:49;;;;;;;9.50;8.27;;;12.90;99.90;;;;;;6206241;23;20166;-79
2021/09/18 04:37:16;;;;;;;10.00;8.60;;;13.00;99.90;;;;;;6206277;23;20403;-83
2021/09/18 04:39:43;;;;;;;10.23;9.17;;;13.00;99.90;;;;;;6206986;23;20197;-81
2021/09/18 04:42:10;;;;;;;10.53;9.17;;;13.00;99.90;;;;;;6206879;23;20173;-80
2021/09/18 04:44:36;;;;;;;9.83;8.83;;;13.00;99.90;;;;;;6206165;23;20184;-81
2021/09/18 04:47:04;;;;;;;10.90;8.80;;;13.00;99.90;;;;;;6206829;23;20174;-83
2021/09/18 04:49:32;;;;;;;11.63;10.43;;;13.00;99.90;;;;;;6207072;23;20181;-82
2021/09/18 04:51:59;;;;;;;11.37;10.17;;;13.10;99.90;;;;;;6205846;23;20174;-82
2021/09/18 04:54:26;;;;;;;11.63;9.57;;;13.10;99.90;;;;;;6204659;23;20838;-79
2021/09/18 04:56:52;;;;;;;11.40;10.07;;;13.10;99.90;;;;;;6204043;23;20170;-82
2021/09/18 04:59:19;;;;;;;10.40;8.83;;;13.10;99.90;;;;;;6204277;23;20190;-82
2021/09/18 05:01:46;;;;;;;10.23;8.83;;;13.10;99.90;;;;;;6205062;23;20237;-79
2021/09/18 05:04:14;;;;;;;9.30;8.30;;;13.10;99.90;;;;;;6204623;23;20197;-79
2021/09/18 05:06:42;;;;;;;8.97;8.10;;;13.10;99.90;;;;;;6204020;23;20181;-80
2021/09/18 05:09:08;;;;;;;8.67;7.40;;;13.10;99.90;;;;;;6204539;23;20577;-79
2021/09/18 05:11:35;;;;;;;9.73;8.47;;;13.10;99.90;;;;;;6204900;23;20563;-81
2021/09/18 05:14:03;;;;;;;9.10;8.20;;;13.10;99.90;;;;;;6205073;23;20198;-80
2021/09/18 05:16:29;;;;;;;9.87;8.17;;;13.10;99.90;;;;;;6205388;23;20174;-82
2021/09/18 05:18:57;;;;;;;10.23;8.37;;;13.10;99.90;;;;;;6206158;23;20197;-81
2021/09/18 05:21:24;;;;;;;9.43;7.60;;;13.10;99.90;;;;;;6204871;23;20188;-81
2021/09/18 05:23:52;;;;;;;8.73;7.83;;;13.10;99.90;;;;;;6205819;23;20178;-81
2021/09/18 05:26:19;;;;;;;11.40;8.93;;;13.10;99.90;;;;;;6203904;23;20173;-80
2021/09/18 05:28:45;;;;;;;11.40;9.90;;;13.20;99.90;;;;;;6203928;23;20181;-81
2021/09/18 05:31:12;;;;;;;13.67;10.93;;;13.20;99.90;;;;;;6204523;23;20170;-81
2021/09/18 05:33:39;;;;;;;13.83;10.30;;;13.20;99.90;;;;;;6203938;23;20174;-82
2021/09/18 05:36:06;;;;;;;15.47;12.87;;;13.30;99.90;;;;;;6203702;23;20174;-80
2021/09/18 05:38:32;;;;;;;15.27;13.17;;;13.30;99.90;;;;;;6205205;23;20178;-85
2021/09/18 05:41:01;;;;;;;16.50;13.30;;;13.40;99.90;;;;;;6204335;23;20170;-86
2021/09/18 05:43:27;;;;;;;15.27;12.53;;;13.40;99.90;;;;;;6202576;23;20174;-79
2021/09/18 05:45:54;;;;;;;15.17;12.23;;;13.40;99.90;;;;;;6204509;23;20181;-81
2021/09/18 05:48:21;;;;;;;25.33;16.73;;;13.50;99.90;;;;;;6203649;23;20169;-81
2021/09/18 05:50:48;;;;;;;24.90;18.17;;;13.50;99.90;;;;;;6203841;23;20178;-81
2021/09/18 05:53:15;;;;;;;28.87;18.60;;;13.60;99.90;;;;;;6204248;23;20174;-82
2021/09/18 05:55:41;;;;;;;24.53;18.73;;;13.70;99.90;;;;;;6202761;23;20178;-80
2021/09/18 05:58:09;;;;;;;24.10;17.63;;;13.80;99.90;;;;;;6203961;23;20590;-82
2021/09/18 06:00:36;;;;;;;25.17;17.20;;;13.80;99.90;;;;;;6203469;23;20197;-84
2021/09/18 06:03:03;;;;;;;19.07;15.60;;;13.90;99.90;;;;;;6202444;23;20170;-82
2021/09/18 06:05:30;;;;;;;19.50;14.97;;;13.90;99.90;;;;;;6205100;23;20169;-85
2021/09/18 06:07:57;;;;;;;19.83;14.57;;;14.00;99.90;;;;;;6205614;23;20178;-83
2021/09/18 06:10:23;;;;;;;20.77;15.87;;;14.00;99.90;;;;;;6202647;23;20174;-83
2021/09/18 06:12:50;;;;;;;21.30;16.53;;;14.10;99.90;;;;;;6204151;23;20201;-82
2021/09/18 06:15:18;;;;;;;28.63;20.93;;;14.10;99.90;;;;;;6204989;23;20206;-83
2021/09/18 06:17:45;;;;;;;21.40;16.97;;;14.20;99.90;;;;;;6204997;23;20173;-82
2021/09/18 06:20:13;;;;;;;28.47;21.33;;;14.20;99.90;;;;;;6206953;23;20205;-82
2021/09/18 06:22:40;;;;;;;26.67;18.50;;;14.30;99.90;;;;;;6207059;23;20184;-81
2021/09/18 06:25:11;;;;;;;22.60;16.73;;;14.40;99.90;;;;;;6204917;23;20174;-81
2021/09/18 06:27:37;;;;;;;21.47;16.53;;;14.40;99.90;;;;;;6203455;23;20202;-80
2021/09/18 06:30:05;;;;;;;17.87;15.03;;;14.40;99.90;;;;;;6203184;23;20174;-81
2021/09/18 06:32:34;;;;;;;21.60;15.70;;;14.50;99.90;;;;;;6203385;23;20178;-82
2021/09/18 06:35:01;;;;;;;21.53;16.60;;;14.50;99.90;;;;;;6204480;23;20178;-82
2021/09/18 06:37:27;;;;;;;23.27;19.07;;;14.50;99.90;;;;;;6204721;23;20174;-83
2021/09/18 06:39:54;;;;;;;25.33;19.23;;;14.60;99.90;;;;;;6207498;23;20197;-83
2021/09/18 06:42:21;;;;;;;22.20;17.50;;;14.70;99.90;;;;;;6209011;23;20170;-88
2021/09/18 06:44:48;;;;;;;30.03;21.43;;;14.80;99.90;;;;;;6209598;23;20170;-83
2021/09/18 06:47:15;;;;;;;30.63;21.67;;;14.80;99.90;;;;;;6209535;23;20174;-83
2021/09/18 06:49:43;;;;;;;32.67;24.27;;;14.90;99.90;;;;;;6209723;23;20579;-84
2021/09/18 06:52:10;;;;;;;28.53;20.73;;;14.90;99.90;;;;;;6208174;23;20181;-85
2021/09/18 06:54:36;;;;;;;27.70;18.70;;;15.00;99.90;;;;;;6208622;23;20170;-84
2021/09/18 06:57:04;;;;;;;29.40;22.80;;;15.00;99.90;;;;;;6209595;23;20170;-85
2021/09/18 06:59:30;;;;;;;26.43;19.73;;;15.10;99.90;;;;;;6208703;23;20204;-84
2021/09/18 07:01:57;;;;;;;26.97;18.80;;;15.20;99.90;;;;;;6209850;23;20178;-82
2021/09/18 07:04:24;;;;;;;21.30;16.67;;;15.20;99.90;;;;;;6210657;23;20174;-85
2021/09/18 07:06:52;;;;;;;32.00;21.37;;;15.20;99.90;;;;;;6210028;23;20185;-84
2021/09/18 07:09:19;;;;;;;28.47;22.03;;;15.30;99.90;;;;;;6210727;23;20166;-84
2021/09/18 07:11:46;;;;;;;26.43;19.67;;;15.40;99.90;;;;;;6211681;23;20198;-86
2021/09/18 07:14:12;;;;;;;32.97;22.90;;;15.50;99.90;;;;;;6210499;23;20236;-86
2021/09/18 07:16:39;;;;;;;27.07;21.70;;;15.50;99.90;;;;;;6212157;23;20174;-85
2021/09/18 07:19:06;;;;;;;28.87;22.70;;;15.60;99.90;;;;;;6212094;23;20204;-86
2021/09/18 07:21:33;;;;;;;27.10;21.20;;;15.60;99.90;;;;;;6211084;23;20191;-85
2021/09/18 07:24:01;;;;;;;27.17;20.80;;;15.70;99.90;;;;;;6212464;23;20177;-85
2021/09/18 07:26:28;;;;;;;26.73;20.20;;;15.80;99.90;;;;;;6210995;23;20174;-86
2021/09/18 07:28:55;;;;;;;29.10;20.60;;;15.90;99.90;;;;;;6211503;23;20594;-86
2021/09/18 07:31:22;;;;;;;31.70;23.98;;;16.00;99.90;;;;;;6211650;23;20178;-81
2021/09/18 07:37:22;;;;;;;32.73;24.60;;;16.10;99.90;;;;;;6107734;23;20184;-85
2021/09/18 07:39:51;;;;;;;43.35;30.25;;;16.20;99.90;;;;;;6211308;23;20209;-86
2021/09/18 07:42:18;;;;;;;30.10;24.48;;;16.20;99.90;;;;;;6210599;23;20571;-86
2021/09/18 07:44:44;;;;;;;31.98;23.95;;;16.20;99.90;;;;;;6211885;23;20421;-85
2021/09/18 07:47:11;;;;;;;34.63;26.20;;;16.30;99.90;;;;;;6210723;23;20777;-86
2021/09/18 07:49:38;;;;;;;37.40;29.35;;;16.40;99.90;;;;;;6184845;23;20177;-85
2021/09/18 08:16:50;;;;;;;27.85;20.30;;;16.90;99.90;;;;;;5805297;24;20262;-83
2021/09/18 08:19:17;;;;;;;31.42;26.10;;;17.00;99.90;;;;;;5912258;24;20208;-85
2021/09/18 08:21:44;;;;;;;32.72;25.40;;;17.10;99.90;;;;;;5991018;23;20826;-84
2021/09/18 08:24:11;;;;;;;27.08;22.00;;;17.20;99.90;;;;;;6002879;23;20185;-85
2021/09/18 08:26:38;;;;;;;30.40;24.92;;;17.20;99.90;;;;;;6004275;23;20187;-84
2021/09/18 08:29:05;;;;;;;27.30;22.35;;;17.40;99.90;;;;;;6003729;23;20312;-83
2021/09/18 08:31:32;;;;;;;29.42;22.90;;;17.40;99.90;;;;;;6003057;23;20190;-83
2021/09/18 08:34:00;;;;;;;27.25;23.83;;;17.50;99.90;;;;;;6003836;23;20667;-84
2021/09/18 08:36:27;;;;;;;26.83;22.80;;;17.60;99.90;;;;;;6001652;23;20171;-83
2021/09/18 08:38:54;;;;;;;21.60;19.30;;;17.70;99.90;;;;;;6002536;23;20178;-84
2021/09/18 08:41:21;;;;;;;19.20;16.85;;;17.90;99.90;;;;;;6003228;23;20490;-84
2021/09/18 08:43:47;;;;;;;26.67;20.45;;;18.00;99.90;;;;;;6003044;23;20175;-82
2021/09/18 08:46:17;;;;;;;24.75;21.98;;;18.20;99.90;;;;;;6003072;23;20190;-83
2021/09/18 08:48:45;;;;;;;24.90;18.88;;;18.30;99.90;;;;;;6002647;23;20509;-83
2021/09/18 08:51:13;;;;;;;24.58;20.33;;;18.30;99.90;;;;;;6001810;23;20210;-84
2021/09/18 08:53:40;;;;;;;19.95;16.52;;;18.40;99.90;;;;;;6002228;23;20182;-84
2021/09/18 08:56:07;;;;;;;26.45;21.20;;;18.50;99.90;;;;;;6003337;23;20170;-86
2021/09/18 08:58:34;;;;;;;23.52;17.80;;;18.60;99.90;;;;;;6002530;23;20249;-84
2021/09/18 09:01:01;;;;;;;22.42;17.50;;;18.80;99.90;;;;;;6003320;23;20206;-85
2021/09/18 09:03:30;;;;;;;21.55;17.17;;;19.00;99.90;;;;;;6021915;23;20170;-85
2021/09/18 09:06:07;;;;;;;20.75;17.23;;;19.20;99.90;;;;;;6032025;23;20705;-84
2021/09/18 09:08:37;;;;;;;22.98;18.38;;;19.50;99.90;;;;;;6031479;23;20200;-85
2021/09/18 09:11:20;;;;;;;18.60;15.23;;;19.60;99.90;;;;;;6032183;23;20174;-85
2021/09/18 09:13:59;;;;;;;21.63;16.73;;;19.80;99.90;;;;;;6030294;23;20182;-80
2021/09/18 09:16:26;;;;;;;19.30;15.23;;;19.90;99.90;;;;;;6060918;23;20425;-85
2021/09/18 09:18:53;;;;;;;14.98;12.40;;;20.20;99.90;;;;;;6088241;23;20172;-83
2021/09/18 09:21:22;;;;;;;16.83;13.77;;;20.30;99.90;;;;;;6085178;23;20200;-82
2021/09/18 09:24:06;;;;;;;17.00;14.52;;;20.50;99.90;;;;;;6085827;23;20177;-84
2021/09/18 09:26:34;;;;;;;17.35;14.10;;;20.60;99.90;;;;;;6085909;23;20179;-82
2021/09/18 09:29:01;;;;;;;14.40;11.95;;;20.60;99.90;;;;;;6110647;23;20179;-84
2021/09/18 09:31:29;;;;;;;15.00;11.52;;;20.80;99.90;;;;;;6144950;23;20176;-83
2021/09/18 09:34:02;;;;;;;12.20;10.00;;;20.90;99.90;;;;;;6145414;23;20175;-83
2021/09/18 09:36:29;;;;;;;16.60;11.60;;;21.10;99.90;;;;;;6144318;23;20167;-82
2021/09/18 09:38:58;;;;;;;15.43;13.68;;;21.20;99.90;;;;;;6144743;23;20174;-81
2021/09/18 09:41:33;;;;;;;15.88;12.05;;;21.10;99.90;;;;;;6141048;23;20195;-82
2021/09/18 09:44:01;;;;;;;12.88;10.00;;;21.10;99.90;;;;;;6142621;23;20834;-83
2021/09/18 09:46:28;;;;;;;13.20;10.63;;;21.10;99.90;;;;;;6142473;23;20196;-84
2021/09/18 09:49:07;;;;;;;14.43;12.10;;;21.10;99.90;;;;;;6143127;23;20503;-82
2021/09/18 09:51:34;;;;;;;17.58;13.88;;;21.10;99.90;;;;;;6143194;23;20167;-82
2021/09/18 09:54:25;;;;;;;18.70;15.27;;;21.10;99.90;;;;;;6144226;23;20179;-83
2021/09/18 09:57:10;;;;;;;20.92;16.95;;;21.20;99.90;;;;;;6142611;23;20596;-82
2021/09/18 09:59:38;;;;;;;15.10;12.50;;;21.20;99.90;;;;;;6141058;23;20182;-83
2021/09/18 10:02:06;;;;;;;14.30;12.77;;;21.20;99.90;;;;;;6140626;23;20327;-81
2021/09/18 10:04:34;;;;;;;15.95;14.10;;;21.20;99.90;;;;;;6141921;23;20342;-82
2021/09/18 10:07:01;;;;;;;15.52;13.50;;;21.20;99.90;;;;;;6168441;23;20178;-83
2021/09/18 10:09:28;;;;;;;16.48;12.98;;;21.20;99.90;;;;;;6202423;23;20766;-82
2021/09/18 10:11:56;;;;;;;16.77;11.77;;;21.10;99.90;;;;;;6203942;23;20197;-82
2021/09/18 10:14:31;;;;;;;15.18;11.60;;;21.10;99.90;;;;;;6204094;23;20828;-81
2021/09/18 10:16:59;;;;;;;10.73;8.65;;;21.10;99.90;;;;;;6201955;23;20696;-80
2021/09/18 10:19:42;;;;;;;9.40;7.55;;;21.10;99.90;;;;;;6202410;23;20181;-80
2021/09/18 10:24:57;;;;;;;11.43;7.45;;;21.30;99.90;;;;;;6202564;23;20201;-81
2021/09/18 10:27:27;;;;;;;8.98;6.28;;;21.40;99.90;;;;;;6202142;23;20162;-82
2021/09/18 10:29:56;;;;;;;11.32;8.90;;;21.40;99.90;;;;;;6203015;23;20170;-82
2021/09/18 10:32:25;;;;;;;8.32;6.05;;;21.50;99.90;;;;;;6203020;23;20201;-80
2021/09/18 10:35:20;;;;;;;9.32;6.53;;;21.20;99.90;;;;;;6202709;23;20172;-80
2021/09/18 10:37:47;;;;;;;5.60;5.10;;;21.20;99.90;;;;;;6115631;23;20259;-81
2021/09/18 10:40:16;;;;;;;5.70;4.60;;;21.30;99.90;;;;;;6202588;23;20198;-80
2021/09/18 10:42:44;;;;;;;4.85;4.35;;;21.40;99.90;;;;;;6202092;23;20178;-81
2021/09/18 10:45:14;;;;;;;4.97;4.30;;;21.50;99.90;;;;;;6201964;23;20179;-80
2021/09/18 10:47:43;;;;;;;7.13;5.78;;;21.60;99.90;;;;;;6202856;23;20526;-80
2021/09/18 10:50:38;;;;;;;7.10;5.85;;;21.60;99.90;;;;;;6202836;23;20178;-79
2021/09/18 10:53:07;;;;;;;9.30;8.30;;;21.60;99.90;;;;;;6202213;23;20732;-82
2021/09/18 10:55:53;;;;;;;10.02;8.35;;;21.60;99.90;;;;;;6203007;23;20185;-80
2021/09/18 10:58:21;;;;;;;8.60;7.50;;;21.60;99.90;;;;;;6201255;23;20166;-81
2021/09/18 11:00:54;;;;;;;7.40;6.70;;;21.60;99.90;;;;;;6203431;23;20202;-82
2021/09/18 11:03:36;;;;;;;7.10;6.25;;;21.70;99.90;;;;;;6202068;23;20170;-82
2021/09/18 11:06:04;;;;;;;6.88;5.50;;;21.80;99.90;;;;;;6202669;23;20179;-81
2021/09/18 11:08:37;;;;;;;7.10;5.82;;;22.00;99.90;;;;;;6203399;23;20178;-81
2021/09/18 11:11:09;;;;;;;7.53;6.07;;;22.10;99.90;;;;;;6204200;23;20830;-90
2021/09/18 11:13:37;;;;;;;8.05;6.13;;;22.30;99.90;;;;;;6205518;23;20209;-90
2021/09/18 11:16:19;;;;;;;7.78;6.80;;;22.50;99.90;;;;;;6207662;23;20206;-89
2021/09/18 11:18:51;;;;;;;10.20;7.43;;;22.60;99.90;;;;;;6207912;22;20198;-87
2021/09/18 11:21:23;;;;;;;6.88;6.18;;;22.70;99.90;;;;;;6206036;23;20469;-80
2021/09/18 11:23:51;;;;;;;5.22;4.53;;;22.80;99.90;;;;;;6206961;23;20272;-80
2021/09/18 11:26:45;;;;;;;8.25;5.22;;;22.80;99.90;;;;;;6207578;23;20178;-86
2021/09/18 11:29:15;;;;;;;4.95;4.45;;;22.80;99.90;;;;;;6206459;23;20196;-91
2021/09/18 11:31:55;;;;;;;5.82;4.97;;;22.90;99.90;;;;;;6207722;23;20174;-86
2021/09/18 11:34:24;;;;;;;12.85;8.05;;;23.20;99.90;;;;;;6207492;23;20170;-84
2021/09/18 11:36:58;;;;;;;8.50;7.65;;;23.30;99.90;;;;;;6207674;23;20212;-82
2021/09/18 11:39:54;;;;;;;10.85;8.95;;;23.30;99.90;;;;;;6206325;23;20375;-90
2021/09/18 11:42:25;;;;;;;9.52;8.45;;;23.40;99.90;;;;;;6138871;23;20202;-90
2021/09/18 11:44:57;;;;;;;10.98;9.77;;;23.60;99.90;;;;;;6207378;23;20173;-88
2021/09/18 11:47:28;;;;;;;10.85;9.73;;;23.80;99.90;;;;;;6209607;23;20170;-89
2021/09/18 11:49:55;;;;;;;13.18;10.25;;;23.80;99.90;;;;;;6208861;23;20188;-90
2021/09/18 11:52:33;;;;;;;8.88;7.88;;;23.70;99.90;;;;;;6208193;23;20174;-89
2021/09/18 11:55:00;;;;;;;11.50;10.38;;;23.70;99.90;;;;;;6210632;23;20200;-90
2021/09/18 11:57:26;;;;;;;11.13;9.57;;;23.70;99.90;;;;;;6210143;23;20178;-89
2021/09/18 11:59:53;;;;;;;8.55;7.55;;;23.60;99.90;;;;;;6209902;23;20178;-86
2021/09/18 12:02:31;;;;;;;8.95;8.15;;;23.50;99.90;;;;;;6209716;23;20198;-89
2021/09/18 12:04:58;;;;;;;7.75;6.95;;;23.50;99.90;;;;;;6212385;23;20715;-84
2021/09/18 12:07:25;;;;;;;6.30;5.70;;;23.40;99.90;;;;;;6210563;23;20178;-89
2021/09/18 12:09:52;;;;;;;8.10;6.82;;;23.30;99.90;;;;;;6211687;23;20178;-89
2021/09/18 12:12:30;;;;;;;7.55;5.80;;;23.20;99.90;;;;;;6211513;23;20449;-90
2021/09/18 12:14:57;;;;;;;8.80;6.22;;;23.10;99.90;;;;;;6214168;23;20210;-95
2021/09/18 12:17:24;;;;;;;8.38;5.65;;;23.00;99.90;;;;;;6210642;23;20159;-87
2021/09/18 12:19:53;;;;;;;5.75;4.20;;;22.80;99.90;;;;;;6212592;23;20210;-93
2021/09/18 12:22:22;;;;;;;5.70;5.10;;;22.90;99.90;;;;;;6212312;23;20220;-91
2021/09/18 12:24:50;;;;;;;4.22;3.67;;;23.00;99.90;;;;;;6212154;23;20710;-92
2021/09/18 12:27:27;;;;;;;5.55;5.00;;;23.10;99.90;;;;;;6211445;23;20165;-91
2021/09/18 12:29:58;;;;;;;4.93;4.43;;;23.00;99.90;;;;;;6212849;23;20182;-89
2021/09/18 12:32:26;;;;;;;6.95;5.18;;;23.10;99.90;;;;;;6211580;23;20169;-87
2021/09/18 12:34:58;;;;;;;4.88;4.20;;;23.10;99.90;;;;;;6210844;23;20180;-91
2021/09/18 12:37:39;;;;;;;3.33;3.03;;;23.00;99.90;;;;;;6213709;23;20166;-95
2021/09/18 12:40:16;;;;;;;3.25;2.95;;;22.90;99.90;;;;;;6213757;23;20591;-93
2021/09/18 12:42:43;;;;;;;4.22;2.90;;;22.80;99.90;;;;;;6213724;23;20185;-96
2021/09/18 12:45:25;;;;;;;2.70;2.50;;;22.70;99.90;;;;;;6209939;23;20555;-92
2021/09/18 12:48:17;;;;;;;4.18;3.25;;;22.60;99.90;;;;;;6212472;23;20199;-96
2021/09/18 12:51:08;;;;;;;;;;;;;;;;;;;;;
2021/09/18 12:53:42;;;;;;;2.85;2.50;;;22.50;99.90;;;;;;6208989;23;20438;-81
2021/09/18 12:56:22;;;;;;;2.50;1.90;;;22.60;99.90;;;;;;6210844;23;20166;-92
2021/09/18 12:58:51;;;;;;;4.43;4.03;;;22.90;99.90;;;;;;6211005;23;20539;-79
2021/09/18 13:01:20;;;;;;;4.90;2.88;;;23.20;99.90;;;;;;6216817;23;20193;-80
2021/09/18 13:04:00;;;;;;;4.88;3.85;;;23.20;99.90;;;;;;6215729;22;20411;-96
2021/09/18 13:06:32;;;;;;;2.88;2.22;;;23.20;99.90;;;;;;6213731;23;20575;-79
2021/09/18 13:09:03;;;;;;;2.20;2.00;;;23.20;99.90;;;;;;6212386;23;20257;-81
2021/09/18 13:11:32;;;;;;;1.67;1.58;;;23.20;99.90;;;;;;6210730;23;20197;-95
2021/09/18 13:14:10;;;;;;;3.35;2.10;;;23.20;99.90;;;;;;6210841;23;20177;-82
2021/09/18 13:16:37;;;;;;;3.05;1.58;;;23.20;99.90;;;;;;6211091;23;20173;-87